sensor_id;sensor_type;location;lat;lon;timestamp;P1;durP1;ratioP1;P2;durP2;ratioP2
59474;SDS011;45288;51.136;16.928;2022-10-30T00:05:14;27.98;;;16.38;;
59474;SDS011;45288;51.136;16.928;2022-10-30T00:07:41;26.38;;;16.40;;
59474;SDS011;45288;51.136;16.928;2022-10-30T00:10:07;28.95;;;15.85;;
59474;SDS011;45288;51.136;16.928;2022-10-30T00:12:33;25.95;;;14.75;;
59474;SDS011;45288;51.136;16.928;2022-10-30T00:14:59;23.27;;;14.60;;
59474;SDS011;45288;51.136;16.928;2022-10-30T00:17:25;25.77;;;15.55;;
59474;SDS011;45288;51.136;16.928;2022-10-30T00:19:50;25.00;;;15.25;;
59474;SDS011;45288;51.136;16.928;2022-10-30T00:22:16;27.60;;;16.02;;
59474;SDS011;45288;51.136;16.928;2022-10-30T00:24:42;23.13;;;15.07;;
59474;SDS011;45288;51.136;16.928;2022-10-30T00:27:07;25.55;;;15.25;;
59474;SDS011;45288;51.136;16.928;2022-10-30T00:29:33;27.20;;;15.67;;
59474;SDS011;45288;51.136;16.928;2022-10-30T00:31:59;25.10;;;15.48;;
59474;SDS011;45288;51.136;16.928;2022-10-30T00:34:24;25.30;;;15.53;;
59474;SDS011;45288;51.136;16.928;2022-10-30T00:36:50;25.23;;;15.10;;
59474;SDS011;45288;51.136;16.928;2022-10-30T00:39:16;28.48;;;15.20;;
59474;SDS011;45288;51.136;16.928;2022-10-30T00:41:43;21.88;;;14.88;;
59474;SDS011;45288;51.136;16.928;2022-10-30T00:46:53;27.97;;;15.37;;
59474;SDS011;45288;51.136;16.928;2022-10-30T00:49:19;24.48;;;15.02;;
59474;SDS011;45288;51.136;16.928;2022-10-30T00:51:46;29.55;;;16.55;;
59474;SDS011;45288;51.136;16.928;2022-10-30T00:54:14;31.05;;;17.73;;
59474;SDS011;45288;51.136;16.928;2022-10-30T00:56:40;33.30;;;17.67;;
59474;SDS011;45288;51.136;16.928;2022-10-30T00:59:07;32.88;;;19.10;;
59474;SDS011;45288;51.136;16.928;2022-10-30T01:01:35;32.20;;;20.20;;
59474;SDS011;45288;51.136;16.928;2022-10-30T01:04:02;31.43;;;19.67;;
59474;SDS011;45288;51.136;16.928;2022-10-30T01:06:29;31.40;;;18.83;;
59474;SDS011;45288;51.136;16.928;2022-10-30T01:08:57;28.48;;;18.13;;
59474;SDS011;45288;51.136;16.928;2022-10-30T01:11:22;28.27;;;17.48;;
59474;SDS011;45288;51.136;16.928;2022-10-30T01:13:48;28.30;;;16.83;;
59474;SDS011;45288;51.136;16.928;2022-10-30T01:16:19;30.00;;;17.17;;
59474;SDS011;45288;51.136;16.928;2022-10-30T01:24:00;25.23;;;15.68;;
59474;SDS011;45288;51.136;16.928;2022-10-30T01:31:56;24.00;;;15.32;;
59474;SDS011;45288;51.136;16.928;2022-10-30T01:34:32;25.08;;;15.25;;
59474;SDS011;45288;51.136;16.928;2022-10-30T01:37:02;25.33;;;15.05;;
59474;SDS011;45288;51.136;16.928;2022-10-30T01:39:34;24.92;;;15.55;;
59474;SDS011;45288;51.136;16.928;2022-10-30T01:44:46;24.85;;;15.63;;
59474;SDS011;45288;51.136;16.928;2022-10-30T01:49:46;22.38;;;14.82;;
59474;SDS011;45288;51.136;16.928;2022-10-30T01:55:03;27.08;;;14.57;;
59474;SDS011;45288;51.136;16.928;2022-10-30T01:57:39;24.05;;;14.45;;
59474;SDS011;45288;51.136;16.928;2022-10-30T02:00:11;22.80;;;14.45;;
59474;SDS011;45288;51.136;16.928;2022-10-30T02:02:45;22.58;;;14.15;;
59474;SDS011;45288;51.136;16.928;2022-10-30T02:05:13;25.43;;;14.50;;
59474;SDS011;45288;51.136;16.928;2022-10-30T02:07:43;27.20;;;14.05;;
59474;SDS011;45288;51.136;16.928;2022-10-30T02:10:09;26.17;;;14.07;;
59474;SDS011;45288;51.136;16.928;2022-10-30T02:12:35;24.95;;;13.93;;
59474;SDS011;45288;51.136;16.928;2022-10-30T02:15:01;26.08;;;14.15;;
59474;SDS011;45288;51.136;16.928;2022-10-30T02:17:27;25.35;;;14.30;;
59474;SDS011;45288;51.136;16.928;2022-10-30T02:19:52;24.30;;;14.00;;
59474;SDS011;45288;51.136;16.928;2022-10-30T02:22:18;23.87;;;14.17;;
59474;SDS011;45288;51.136;16.928;2022-10-30T02:24:44;25.50;;;14.57;;
59474;SDS011;45288;51.136;16.928;2022-10-30T02:27:10;22.87;;;13.80;;
59474;SDS011;45288;51.136;16.928;2022-10-30T02:29:38;22.90;;;14.00;;
59474;SDS011;45288;51.136;16.928;2022-10-30T02:32:04;25.00;;;14.97;;
59474;SDS011;45288;51.136;16.928;2022-10-30T02:34:32;23.37;;;14.57;;
59474;SDS011;45288;51.136;16.928;2022-10-30T02:36:57;24.27;;;15.10;;
59474;SDS011;45288;51.136;16.928;2022-10-30T02:39:23;27.77;;;15.73;;
59474;SDS011;45288;51.136;16.928;2022-10-30T02:41:49;25.98;;;15.30;;
59474;SDS011;45288;51.136;16.928;2022-10-30T02:44:14;28.90;;;14.90;;
59474;SDS011;45288;51.136;16.928;2022-10-30T02:46:40;26.42;;;15.05;;
59474;SDS011;45288;51.136;16.928;2022-10-30T02:49:06;24.70;;;14.77;;
59474;SDS011;45288;51.136;16.928;2022-10-30T02:51:32;20.60;;;13.70;;
59474;SDS011;45288;51.136;16.928;2022-10-30T02:53:59;23.92;;;14.07;;
59474;SDS011;45288;51.136;16.928;2022-10-30T02:56:24;21.55;;;13.95;;
59474;SDS011;45288;51.136;16.928;2022-10-30T02:58:53;25.25;;;16.05;;
59474;SDS011;45288;51.136;16.928;2022-10-30T03:01:18;24.05;;;15.68;;
59474;SDS011;45288;51.136;16.928;2022-10-30T03:03:44;26.67;;;16.20;;
59474;SDS011;45288;51.136;16.928;2022-10-30T03:06:11;23.80;;;15.60;;
59474;SDS011;45288;51.136;16.928;2022-10-30T03:08:37;26.63;;;16.67;;
59474;SDS011;45288;51.136;16.928;2022-10-30T03:11:05;25.60;;;16.63;;
59474;SDS011;45288;51.136;16.928;2022-10-30T03:13:31;23.77;;;15.63;;
59474;SDS011;45288;51.136;16.928;2022-10-30T03:15:58;26.95;;;16.05;;
59474;SDS011;45288;51.136;16.928;2022-10-30T03:18:24;26.83;;;15.93;;
59474;SDS011;45288;51.136;16.928;2022-10-30T03:20:54;24.77;;;15.32;;
59474;SDS011;45288;51.136;16.928;2022-10-30T03:23:19;26.05;;;15.50;;
59474;SDS011;45288;51.136;16.928;2022-10-30T03:25:45;22.23;;;15.10;;
59474;SDS011;45288;51.136;16.928;2022-10-30T03:28:12;26.13;;;15.55;;
59474;SDS011;45288;51.136;16.928;2022-10-30T03:30:38;23.85;;;15.02;;
59474;SDS011;45288;51.136;16.928;2022-10-30T03:33:03;23.27;;;15.20;;
59474;SDS011;45288;51.136;16.928;2022-10-30T03:35:29;26.77;;;14.97;;
59474;SDS011;45288;51.136;16.928;2022-10-30T03:37:55;22.27;;;14.65;;
59474;SDS011;45288;51.136;16.928;2022-10-30T03:40:20;23.55;;;14.45;;
59474;SDS011;45288;51.136;16.928;2022-10-30T03:42:46;25.97;;;15.17;;
59474;SDS011;45288;51.136;16.928;2022-10-30T03:45:13;21.63;;;14.52;;
59474;SDS011;45288;51.136;16.928;2022-10-30T03:47:39;24.15;;;14.75;;
59474;SDS011;45288;51.136;16.928;2022-10-30T03:50:07;24.23;;;14.63;;
59474;SDS011;45288;51.136;16.928;2022-10-30T03:52:33;23.48;;;15.07;;
59474;SDS011;45288;51.136;16.928;2022-10-30T03:54:59;26.60;;;15.17;;
59474;SDS011;45288;51.136;16.928;2022-10-30T03:57:24;25.77;;;15.25;;
59474;SDS011;45288;51.136;16.928;2022-10-30T04:00:07;26.42;;;15.90;;
59474;SDS011;45288;51.136;16.928;2022-10-30T04:02:48;27.83;;;15.98;;
59474;SDS011;45288;51.136;16.928;2022-10-30T04:05:16;26.70;;;15.85;;
59474;SDS011;45288;51.136;16.928;2022-10-30T04:07:42;26.77;;;16.65;;
59474;SDS011;45288;51.136;16.928;2022-10-30T04:10:08;27.17;;;16.07;;
59474;SDS011;45288;51.136;16.928;2022-10-30T04:12:34;26.90;;;15.37;;
59474;SDS011;45288;51.136;16.928;2022-10-30T04:15:00;28.42;;;16.75;;
59474;SDS011;45288;51.136;16.928;2022-10-30T04:17:26;25.90;;;16.50;;
59474;SDS011;45288;51.136;16.928;2022-10-30T04:19:51;27.70;;;17.08;;
59474;SDS011;45288;51.136;16.928;2022-10-30T04:22:17;30.23;;;17.38;;
59474;SDS011;45288;51.136;16.928;2022-10-30T04:24:43;25.93;;;15.83;;
59474;SDS011;45288;51.136;16.928;2022-10-30T04:27:10;27.77;;;16.60;;
59474;SDS011;45288;51.136;16.928;2022-10-30T04:29:38;27.65;;;15.82;;
59474;SDS011;45288;51.136;16.928;2022-10-30T04:32:06;23.73;;;14.67;;
59474;SDS011;45288;51.136;16.928;2022-10-30T04:34:32;25.97;;;15.57;;
59474;SDS011;45288;51.136;16.928;2022-10-30T04:36:59;28.20;;;15.20;;
59474;SDS011;45288;51.136;16.928;2022-10-30T04:39:24;29.40;;;15.63;;
59474;SDS011;45288;51.136;16.928;2022-10-30T04:41:57;28.05;;;15.48;;
59474;SDS011;45288;51.136;16.928;2022-10-30T04:44:29;26.95;;;14.90;;
59474;SDS011;45288;51.136;16.928;2022-10-30T04:46:55;26.42;;;14.93;;
59474;SDS011;45288;51.136;16.928;2022-10-30T04:49:21;26.55;;;15.00;;
59474;SDS011;45288;51.136;16.928;2022-10-30T04:51:48;26.27;;;14.80;;
59474;SDS011;45288;51.136;16.928;2022-10-30T04:54:15;25.85;;;15.70;;
59474;SDS011;45288;51.136;16.928;2022-10-30T04:56:41;24.77;;;14.53;;
59474;SDS011;45288;51.136;16.928;2022-10-30T04:59:07;22.17;;;14.40;;
59474;SDS011;45288;51.136;16.928;2022-10-30T05:01:32;23.27;;;14.27;;
59474;SDS011;45288;51.136;16.928;2022-10-30T05:04:00;20.55;;;13.25;;
59474;SDS011;45288;51.136;16.928;2022-10-30T05:06:28;23.27;;;14.45;;
59474;SDS011;45288;51.136;16.928;2022-10-30T05:08:55;25.45;;;14.20;;
59474;SDS011;45288;51.136;16.928;2022-10-30T05:11:38;21.45;;;13.23;;
59474;SDS011;45288;51.136;16.928;2022-10-30T05:14:05;23.63;;;14.48;;
59474;SDS011;45288;51.136;16.928;2022-10-30T05:16:31;21.83;;;13.63;;
59474;SDS011;45288;51.136;16.928;2022-10-30T05:18:59;20.05;;;13.57;;
59474;SDS011;45288;51.136;16.928;2022-10-30T05:21:25;24.80;;;13.83;;
59474;SDS011;45288;51.136;16.928;2022-10-30T05:23:52;19.65;;;13.38;;
59474;SDS011;45288;51.136;16.928;2022-10-30T05:26:18;20.63;;;14.02;;
59474;SDS011;45288;51.136;16.928;2022-10-30T05:28:44;19.97;;;13.47;;
59474;SDS011;45288;51.136;16.928;2022-10-30T05:31:09;18.70;;;13.18;;
59474;SDS011;45288;51.136;16.928;2022-10-30T05:33:55;20.53;;;14.27;;
59474;SDS011;45288;51.136;16.928;2022-10-30T05:36:23;23.60;;;14.53;;
59474;SDS011;45288;51.136;16.928;2022-10-30T05:38:49;21.10;;;13.82;;
59474;SDS011;45288;51.136;16.928;2022-10-30T05:41:25;21.98;;;13.95;;
59474;SDS011;45288;51.136;16.928;2022-10-30T05:43:51;22.38;;;14.93;;
59474;SDS011;45288;51.136;16.928;2022-10-30T05:46:17;24.40;;;15.33;;
59474;SDS011;45288;51.136;16.928;2022-10-30T05:48:45;22.90;;;15.00;;
59474;SDS011;45288;51.136;16.928;2022-10-30T05:51:10;23.47;;;15.40;;
59474;SDS011;45288;51.136;16.928;2022-10-30T05:53:40;25.47;;;15.07;;
59474;SDS011;45288;51.136;16.928;2022-10-30T05:56:07;20.80;;;14.10;;
59474;SDS011;45288;51.136;16.928;2022-10-30T05:58:34;21.73;;;14.30;;
59474;SDS011;45288;51.136;16.928;2022-10-30T06:01:07;21.13;;;13.38;;
59474;SDS011;45288;51.136;16.928;2022-10-30T06:03:39;21.80;;;13.87;;
59474;SDS011;45288;51.136;16.928;2022-10-30T06:06:05;21.83;;;13.45;;
59474;SDS011;45288;51.136;16.928;2022-10-30T06:08:31;22.05;;;13.57;;
59474;SDS011;45288;51.136;16.928;2022-10-30T06:10:59;21.10;;;14.07;;
59474;SDS011;45288;51.136;16.928;2022-10-30T06:13:32;21.60;;;13.93;;
59474;SDS011;45288;51.136;16.928;2022-10-30T06:16:07;20.00;;;13.80;;
59474;SDS011;45288;51.136;16.928;2022-10-30T06:18:56;23.02;;;15.25;;
59474;SDS011;45288;51.136;16.928;2022-10-30T06:21:24;21.25;;;14.80;;
59474;SDS011;45288;51.136;16.928;2022-10-30T06:23:57;24.45;;;14.88;;
59474;SDS011;45288;51.136;16.928;2022-10-30T06:26:39;22.80;;;14.55;;
59474;SDS011;45288;51.136;16.928;2022-10-30T06:29:09;19.08;;;14.02;;
59474;SDS011;45288;51.136;16.928;2022-10-30T06:31:35;22.73;;;14.40;;
59474;SDS011;45288;51.136;16.928;2022-10-30T06:34:01;22.60;;;14.82;;
59474;SDS011;45288;51.136;16.928;2022-10-30T06:36:28;22.70;;;14.27;;
59474;SDS011;45288;51.136;16.928;2022-10-30T06:38:54;22.83;;;15.40;;
59474;SDS011;45288;51.136;16.928;2022-10-30T06:41:24;18.88;;;14.23;;
59474;SDS011;45288;51.136;16.928;2022-10-30T06:44:00;20.25;;;13.52;;
59474;SDS011;45288;51.136;16.928;2022-10-30T06:46:28;22.63;;;14.38;;
59474;SDS011;45288;51.136;16.928;2022-10-30T06:48:54;23.05;;;15.68;;
59474;SDS011;45288;51.136;16.928;2022-10-30T06:51:20;23.77;;;15.43;;
59474;SDS011;45288;51.136;16.928;2022-10-30T06:53:46;24.60;;;15.05;;
59474;SDS011;45288;51.136;16.928;2022-10-30T06:56:32;20.27;;;14.40;;
59474;SDS011;45288;51.136;16.928;2022-10-30T06:59:03;22.08;;;14.45;;
59474;SDS011;45288;51.136;16.928;2022-10-30T07:01:33;21.33;;;14.18;;
59474;SDS011;45288;51.136;16.928;2022-10-30T07:04:19;20.25;;;13.98;;
59474;SDS011;45288;51.136;16.928;2022-10-30T07:06:46;21.92;;;14.52;;
59474;SDS011;45288;51.136;16.928;2022-10-30T07:09:11;23.70;;;15.63;;
59474;SDS011;45288;51.136;16.928;2022-10-30T07:11:37;25.55;;;16.50;;
59474;SDS011;45288;51.136;16.928;2022-10-30T07:14:25;23.38;;;16.35;;
59474;SDS011;45288;51.136;16.928;2022-10-30T07:16:59;24.67;;;16.63;;
59474;SDS011;45288;51.136;16.928;2022-10-30T07:19:26;22.08;;;15.85;;
59474;SDS011;45288;51.136;16.928;2022-10-30T07:21:54;29.27;;;16.70;;
59474;SDS011;45288;51.136;16.928;2022-10-30T07:24:20;23.58;;;16.50;;
59474;SDS011;45288;51.136;16.928;2022-10-30T07:27:07;24.88;;;16.77;;
59474;SDS011;45288;51.136;16.928;2022-10-30T07:30:05;26.33;;;16.95;;
59474;SDS011;45288;51.136;16.928;2022-10-30T07:32:38;25.17;;;17.40;;
59474;SDS011;45288;51.136;16.928;2022-10-30T07:35:12;24.83;;;17.05;;
59474;SDS011;45288;51.136;16.928;2022-10-30T07:38:00;23.20;;;16.67;;
59474;SDS011;45288;51.136;16.928;2022-10-30T07:40:36;25.30;;;16.25;;
59474;SDS011;45288;51.136;16.928;2022-10-30T07:43:12;25.20;;;17.52;;
59474;SDS011;45288;51.136;16.928;2022-10-30T07:45:59;24.55;;;16.67;;
59474;SDS011;45288;51.136;16.928;2022-10-30T07:48:44;24.63;;;17.17;;
59474;SDS011;45288;51.136;16.928;2022-10-30T07:51:21;26.50;;;17.02;;
59474;SDS011;45288;51.136;16.928;2022-10-30T07:53:48;27.45;;;17.90;;
59474;SDS011;45288;51.136;16.928;2022-10-30T07:56:14;27.73;;;16.70;;
59474;SDS011;45288;51.136;16.928;2022-10-30T07:59:06;27.75;;;16.35;;
59474;SDS011;45288;51.136;16.928;2022-10-30T08:01:50;28.77;;;16.92;;
59474;SDS011;45288;51.136;16.928;2022-10-30T08:04:25;29.20;;;16.70;;
59474;SDS011;45288;51.136;16.928;2022-10-30T08:06:57;31.70;;;17.48;;
59474;SDS011;45288;51.136;16.928;2022-10-30T08:09:23;27.27;;;16.57;;
59474;SDS011;45288;51.136;16.928;2022-10-30T08:11:48;32.83;;;17.30;;
59474;SDS011;45288;51.136;16.928;2022-10-30T08:14:15;29.08;;;16.83;;
59474;SDS011;45288;51.136;16.928;2022-10-30T08:16:40;28.83;;;16.70;;
59474;SDS011;45288;51.136;16.928;2022-10-30T08:19:07;26.35;;;16.27;;
59474;SDS011;45288;51.136;16.928;2022-10-30T08:21:33;25.30;;;16.17;;
59474;SDS011;45288;51.136;16.928;2022-10-30T08:24:05;30.58;;;17.02;;
59474;SDS011;45288;51.136;16.928;2022-10-30T08:26:33;31.95;;;16.90;;
59474;SDS011;45288;51.136;16.928;2022-10-30T08:29:00;31.30;;;16.20;;
59474;SDS011;45288;51.136;16.928;2022-10-30T08:31:27;30.85;;;16.88;;
59474;SDS011;45288;51.136;16.928;2022-10-30T08:34:02;29.07;;;17.10;;
59474;SDS011;45288;51.136;16.928;2022-10-30T08:36:43;27.90;;;16.40;;
59474;SDS011;45288;51.136;16.928;2022-10-30T08:39:09;26.45;;;15.30;;
59474;SDS011;45288;51.136;16.928;2022-10-30T08:41:51;33.90;;;17.93;;
59474;SDS011;45288;51.136;16.928;2022-10-30T08:44:18;25.83;;;15.25;;
59474;SDS011;45288;51.136;16.928;2022-10-30T08:47:03;30.25;;;15.95;;
59474;SDS011;45288;51.136;16.928;2022-10-30T08:49:30;26.17;;;14.68;;
59474;SDS011;45288;51.136;16.928;2022-10-30T08:51:57;25.40;;;14.18;;
59474;SDS011;45288;51.136;16.928;2022-10-30T08:54:23;28.17;;;13.63;;
59474;SDS011;45288;51.136;16.928;2022-10-30T08:56:56;26.02;;;13.00;;
59474;SDS011;45288;51.136;16.928;2022-10-30T08:59:25;21.83;;;12.50;;
59474;SDS011;45288;51.136;16.928;2022-10-30T09:01:59;25.77;;;12.60;;
59474;SDS011;45288;51.136;16.928;2022-10-30T09:05:12;20.10;;;11.30;;
59474;SDS011;45288;51.136;16.928;2022-10-30T09:08:05;19.65;;;10.88;;
59474;SDS011;45288;51.136;16.928;2022-10-30T09:10:52;16.75;;;9.98;;
59474;SDS011;45288;51.136;16.928;2022-10-30T09:13:41;21.23;;;10.52;;
59474;SDS011;45288;51.136;16.928;2022-10-30T09:16:25;21.30;;;10.57;;
59474;SDS011;45288;51.136;16.928;2022-10-30T09:18:57;19.60;;;9.63;;
59474;SDS011;45288;51.136;16.928;2022-10-30T09:21:50;18.98;;;9.18;;
59474;SDS011;45288;51.136;16.928;2022-10-30T09:24:22;13.82;;;8.57;;
59474;SDS011;45288;51.136;16.928;2022-10-30T09:27:08;18.27;;;9.03;;
59474;SDS011;45288;51.136;16.928;2022-10-30T09:29:43;14.70;;;8.43;;
59474;SDS011;45288;51.136;16.928;2022-10-30T09:32:21;16.27;;;9.50;;
59474;SDS011;45288;51.136;16.928;2022-10-30T09:35:08;16.25;;;8.95;;
59474;SDS011;45288;51.136;16.928;2022-10-30T09:38:02;17.40;;;9.77;;
59474;SDS011;45288;51.136;16.928;2022-10-30T09:40:58;15.35;;;9.80;;
59474;SDS011;45288;51.136;16.928;2022-10-30T09:43:48;18.15;;;9.80;;
59474;SDS011;45288;51.136;16.928;2022-10-30T09:46:29;15.68;;;9.48;;
59474;SDS011;45288;51.136;16.928;2022-10-30T09:57:25;21.52;;;10.07;;
59474;SDS011;45288;51.136;16.928;2022-10-30T10:08:09;17.25;;;8.27;;
59474;SDS011;45288;51.136;16.928;2022-10-30T10:11:07;17.35;;;8.18;;
59474;SDS011;45288;51.136;16.928;2022-10-30T10:13:39;14.50;;;8.18;;
59474;SDS011;45288;51.136;16.928;2022-10-30T10:16:14;17.40;;;7.80;;
59474;SDS011;45288;51.136;16.928;2022-10-30T10:21:21;14.68;;;7.82;;
59474;SDS011;45288;51.136;16.928;2022-10-30T10:23:56;15.77;;;8.15;;
59474;SDS011;45288;51.136;16.928;2022-10-30T10:34:28;19.75;;;7.40;;
59474;SDS011;45288;51.136;16.928;2022-10-30T10:45:28;16.80;;;7.03;;
59474;SDS011;45288;51.136;16.928;2022-10-30T10:50:49;15.95;;;6.95;;
59474;SDS011;45288;51.136;16.928;2022-10-30T10:53:23;12.70;;;6.57;;
59474;SDS011;45288;51.136;16.928;2022-10-30T10:55:51;16.38;;;7.95;;
59474;SDS011;45288;51.136;16.928;2022-10-30T11:01:18;14.80;;;7.13;;
59474;SDS011;45288;51.136;16.928;2022-10-30T11:03:56;14.98;;;7.07;;
59474;SDS011;45288;51.136;16.928;2022-10-30T11:06:26;11.32;;;6.05;;
59474;SDS011;45288;51.136;16.928;2022-10-30T11:08:53;18.40;;;7.20;;
